Granite Falls, WA (98252)

10:01 PM PDT on August 26, 2016 (GMT -0700)
Lake Roesiger- N Lk-W Shore | | Change Station

Elev 625 ft 47.99 °N, 121.92 °W | Updated 31 seconds ago

Clear
Clear
66.4 °F
Feels Like 66.4 °F
N
0.0
Wind Variable Wind from WNW

Today
High -- | Low -- °F
--% Chance of Precip.
Yesterday
High -- | Low -- °F
Precip. -- in
Pressure 29.82 in
Visibility 10.0 miles
Clouds Clear
Dew Point 60 °F
Humidity 81%
Rainfall 0.00 in
Snow Depth Not available.
6:17 AM 7:58 PM
Waning Crescent, 28% visible
METAR KAWO 270455Z 03005KT 10SM CLR 21/09 A2982 RMK AO1
Pressure 29.82 in
Visibility 10.0 miles
Clouds Clear
Dew Point 60 °F
Humidity 81%
Rainfall 0.00 in
Snow Depth Not available.
6:17 AM 7:58 PM
Waning Crescent, 28% visible
METAR KAWO 270455Z 03005KT 10SM CLR 21/09 A2982 RMK AO1

10-Day Weather Forecast

Almanac

Astronomy

Aug. 26, 2016 Rise Set
Actual Time
Civil Twilight
Nautical Twilight
Astronomical Twilight
Moon
Length of Visible Light
Length of Day
Tomorrow will be .
, % of the Moon is Illuminated

Today's Extremes

State Highs State Lows

Community

WunderPhotos

Upload Photos

1,935,301 photos uploaded!

WunderBlog® & News

Nearby

Air Quality

  Air Quality AQ Index Pollutant
Not available.

Snow Depth

Station Depth Elevation

Earthquake Activity

City Distance Mag. Time & Date
Minimum magnitude displayed is 2.5.

Coastal Water Temperatures

Place Temperature

Stations

Nearby Weather Stations

Station Location Temp. Windchill Dew Point Humidity Wind Precip. Elev Updated Type
                   

Watches & Warnings

There are currently no watches in effect.